Time;durP1;ratioP1;P1;durP2;ratioP2;P2;SDS_P1;SDS_P2;PMS_P1;PMS_P2;Temp;Humidity;BMP_temperature;BMP_pressure;BME280_temperature;BME280_humidity;BME280_pressure;Samples;Min_cycle;Max_cycle;Signal;HPM_P1;HPM_P2
2023/02/04 00:01:43;;;;;;;3.97;3.67;;;9.30;99.90;;;;;;5033161;28;20497;-72
2023/02/04 00:04:08;;;;;;;4.60;3.80;;;9.30;99.90;;;;;;5033349;28;20198;-73
2023/02/04 00:06:34;;;;;;;4.80;3.77;;;9.30;99.90;;;;;;5033869;28;20189;-72
2023/02/04 00:08:59;;;;;;;5.07;4.30;;;9.20;99.90;;;;;;5033384;28;20173;-72
2023/02/04 00:11:25;;;;;;;4.27;3.77;;;9.20;99.90;;;;;;5033543;28;20166;-72
2023/02/04 00:13:50;;;;;;;6.53;5.17;;;9.10;99.90;;;;;;5033302;28;20251;-73
2023/02/04 00:16:16;;;;;;;4.70;3.97;;;9.10;99.90;;;;;;5033296;28;20171;-73
2023/02/04 00:18:41;;;;;;;3.40;3.10;;;9.10;99.90;;;;;;5035130;28;20549;-73
2023/02/04 00:21:07;;;;;;;3.37;3.07;;;9.10;99.90;;;;;;5033977;28;20169;-73
2023/02/04 00:23:32;;;;;;;3.70;3.40;;;9.10;99.90;;;;;;5033024;28;20181;-73
2023/02/04 00:25:58;;;;;;;3.20;2.80;;;9.10;99.90;;;;;;5016848;28;20362;-72
2023/02/04 00:28:24;;;;;;;3.23;2.90;;;9.10;99.90;;;;;;5013575;28;20229;-73
2023/02/04 00:30:49;;;;;;;2.83;2.63;;;9.10;99.90;;;;;;5013505;28;20569;-72
2023/02/04 00:33:15;;;;;;;3.17;2.87;;;9.20;99.90;;;;;;5013342;28;20669;-73
2023/02/04 00:35:40;;;;;;;3.60;2.80;;;9.20;99.90;;;;;;5013599;28;20191;-73
2023/02/04 00:38:06;;;;;;;5.87;2.63;;;9.20;99.90;;;;;;5013281;28;20246;-73
2023/02/04 00:40:32;;;;;;;3.00;2.30;;;9.20;99.90;;;;;;5013536;28;20164;-73
2023/02/04 00:42:58;;;;;;;2.20;2.10;;;9.20;99.90;;;;;;5013255;28;20175;-73
2023/02/04 00:45:24;;;;;;;2.30;2.10;;;9.20;99.90;;;;;;5013884;28;20995;-73
2023/02/04 00:47:49;;;;;;;3.20;2.27;;;9.30;99.90;;;;;;5032780;28;20656;-73
2023/02/04 00:50:15;;;;;;;2.53;2.33;;;9.30;99.90;;;;;;5032848;28;20524;-73
2023/02/04 00:52:41;;;;;;;2.60;2.40;;;9.20;99.90;;;;;;5033049;28;20186;-73
2023/02/04 00:55:09;;;;;;;2.87;2.63;;;9.20;99.90;;;;;;5032750;28;20575;-74
2023/02/04 00:57:34;;;;;;;3.47;2.60;;;9.20;99.90;;;;;;5033949;28;20163;-73
2023/02/04 01:00:00;;;;;;;3.30;3.00;;;9.30;99.90;;;;;;5037130;28;20408;-73
2023/02/04 01:02:26;;;;;;;4.13;3.73;;;9.20;99.90;;;;;;5036586;28;20607;-73
2023/02/04 01:04:51;;;;;;;5.10;4.00;;;9.10;99.90;;;;;;5036613;28;20241;-73
2023/02/04 01:07:17;;;;;;;5.10;4.70;;;9.10;99.90;;;;;;5036653;28;20221;-73
2023/02/04 01:09:42;;;;;;;7.07;4.27;;;9.00;99.90;;;;;;5036668;28;20220;-73
2023/02/04 01:12:08;;;;;;;5.10;4.60;;;9.00;99.90;;;;;;5036586;28;20169;-73
2023/02/04 01:14:34;;;;;;;4.97;4.57;;;9.00;99.90;;;;;;5036578;28;20191;-73
2023/02/04 01:16:59;;;;;;;4.30;3.90;;;9.00;99.90;;;;;;5034993;28;20185;-73
2023/02/04 01:19:25;;;;;;;8.53;4.90;;;8.90;99.90;;;;;;5036379;28;20227;-73
2023/02/04 01:21:51;;;;;;;5.57;5.07;;;8.90;99.90;;;;;;5035069;28;20619;-73
2023/02/04 01:24:16;;;;;;;5.80;5.20;;;9.00;99.90;;;;;;5036416;28;20188;-73
2023/02/04 01:26:42;;;;;;;4.93;4.30;;;8.90;99.90;;;;;;5035778;28;20563;-73
2023/02/04 01:29:07;;;;;;;5.43;4.90;;;8.80;99.90;;;;;;5018598;28;20591;-73
2023/02/04 01:31:33;;;;;;;5.30;4.80;;;8.80;99.90;;;;;;5016345;28;20645;-73
2023/02/04 01:34:00;;;;;;;5.27;4.70;;;9.00;99.90;;;;;;5016447;28;20685;-73
2023/02/04 01:36:26;;;;;;;4.87;4.37;;;9.00;99.90;;;;;;5016452;28;20685;-73
2023/02/04 01:38:51;;;;;;;5.07;3.67;;;8.90;99.90;;;;;;5016349;28;20957;-73
2023/02/04 01:41:18;;;;;;;5.50;4.90;;;8.90;99.90;;;;;;5016774;28;20441;-73
2023/02/04 01:43:45;;;;;;;5.60;4.50;;;8.90;99.90;;;;;;5016918;28;20204;-73
2023/02/04 01:46:11;;;;;;;4.20;3.80;;;9.00;99.90;;;;;;5022936;28;20445;-73
2023/02/04 01:48:37;;;;;;;4.23;3.83;;;8.80;99.90;;;;;;5036181;28;20468;-73
2023/02/04 01:51:07;;;;;;;4.10;3.57;;;8.80;99.90;;;;;;5035869;28;20170;-73
2023/02/04 01:53:34;;;;;;;4.67;3.17;;;8.90;99.90;;;;;;5035795;28;20177;-73
2023/02/04 01:56:00;;;;;;;2.50;2.30;;;8.80;99.90;;;;;;5036390;28;20912;-73
2023/02/04 01:58:28;;;;;;;4.90;2.53;;;8.80;99.90;;;;;;5035838;28;20921;-73
2023/02/04 02:00:54;;;;;;;2.90;2.10;;;8.70;99.90;;;;;;5034533;28;20417;-73
2023/02/04 02:03:19;;;;;;;3.30;2.10;;;8.70;99.90;;;;;;5035603;28;20408;-73
2023/02/04 02:05:54;;;;;;;4.80;2.50;;;8.70;99.90;;;;;;5036120;28;20191;-73
2023/02/04 02:08:19;;;;;;;5.53;2.37;;;8.70;99.90;;;;;;5034138;28;20589;-73
2023/02/04 02:10:47;;;;;;;5.17;2.37;;;8.70;99.90;;;;;;5035560;28;20500;-73
2023/02/04 02:13:16;;;;;;;5.40;2.80;;;8.70;99.90;;;;;;5035764;28;20178;-73
2023/02/04 02:15:42;;;;;;;7.03;2.03;;;8.60;99.90;;;;;;5034631;28;20412;-73
2023/02/04 02:18:09;;;;;;;4.57;2.30;;;8.60;99.90;;;;;;5035065;28;20914;-73
2023/02/04 02:20:35;;;;;;;4.33;1.70;;;8.60;99.90;;;;;;5035411;28;20185;-73
2023/02/04 02:23:04;;;;;;;4.80;2.27;;;8.50;99.90;;;;;;5035288;28;20455;-73
2023/02/04 02:25:30;;;;;;;5.00;2.07;;;8.50;99.90;;;;;;5035072;28;20549;-72
2023/02/04 02:27:57;;;;;;;5.00;1.73;;;8.60;99.90;;;;;;5035577;28;20416;-73
2023/02/04 02:30:23;;;;;;;3.50;1.87;;;8.60;99.90;;;;;;5035144;28;20410;-72
2023/02/04 02:32:51;;;;;;;5.43;3.03;;;8.50;99.90;;;;;;5034939;28;20931;-73
2023/02/04 02:35:17;;;;;;;5.20;2.63;;;8.40;99.90;;;;;;5017635;28;20263;-73
2023/02/04 02:37:42;;;;;;;6.07;2.60;;;8.40;99.90;;;;;;5014023;28;20414;-72
2023/02/04 02:40:09;;;;;;;6.17;2.80;;;8.30;99.90;;;;;;5015383;28;20804;-73
2023/02/04 02:42:35;;;;;;;4.23;2.07;;;8.40;99.90;;;;;;5015010;28;20175;-73
2023/02/04 02:45:07;;;;;;;8.30;2.60;;;8.40;99.90;;;;;;5014857;28;20940;-73
2023/02/04 02:47:32;;;;;;;4.60;2.60;;;8.40;99.90;;;;;;5032008;28;20409;-73
2023/02/04 02:49:58;;;;;;;10.93;2.60;;;8.30;99.90;;;;;;5034724;28;20431;-73
2023/02/04 02:52:24;;;;;;;5.47;2.60;;;8.30;99.90;;;;;;5034645;28;20169;-73
2023/02/04 02:54:49;;;;;;;4.87;2.07;;;8.20;99.90;;;;;;5034756;28;20699;-73
2023/02/04 02:57:20;;;;;;;3.63;2.53;;;8.10;99.90;;;;;;5034857;28;20290;-73
2023/02/04 02:59:46;;;;;;;6.53;2.10;;;8.10;99.90;;;;;;5034664;28;20179;-73
2023/02/04 03:02:18;;;;;;;7.20;2.63;;;8.10;99.90;;;;;;5034241;28;20416;-72
2023/02/04 03:04:53;;;;;;;4.17;2.33;;;8.00;99.90;;;;;;5034579;28;20895;-73
2023/02/04 03:07:20;;;;;;;4.30;2.37;;;8.10;99.90;;;;;;5034571;28;20813;-72
2023/02/04 03:09:46;;;;;;;9.27;2.70;;;8.10;99.90;;;;;;5034305;28;20416;-72
2023/02/04 03:12:11;;;;;;;4.33;2.40;;;8.20;99.90;;;;;;5034539;28;20411;-73
2023/02/04 03:14:37;;;;;;;4.57;2.10;;;8.20;99.90;;;;;;5034540;28;20189;-73
2023/02/04 03:17:06;;;;;;;8.00;2.77;;;8.20;99.90;;;;;;5032893;28;20183;-73
2023/02/04 03:19:32;;;;;;;10.03;2.60;;;8.10;99.90;;;;;;5030057;28;20473;-72
2023/02/04 03:21:59;;;;;;;6.67;2.40;;;8.20;99.90;;;;;;5014154;28;20418;-73
2023/02/04 03:24:24;;;;;;;7.00;2.33;;;8.30;99.90;;;;;;5014281;28;20447;-73
2023/02/04 03:26:50;;;;;;;4.30;2.73;;;8.30;99.90;;;;;;5014546;28;20461;-73
2023/02/04 03:29:16;;;;;;;6.73;2.90;;;8.30;99.90;;;;;;5013334;28;20273;-73
2023/02/04 03:31:42;;;;;;;5.37;2.50;;;8.40;99.90;;;;;;5014217;28;20568;-73
2023/02/04 03:34:07;;;;;;;3.93;2.63;;;8.30;99.90;;;;;;5014029;28;20529;-73
2023/02/04 03:36:33;;;;;;;6.47;3.20;;;8.30;99.90;;;;;;5014449;28;20232;-73
2023/02/04 03:38:58;;;;;;;8.03;3.07;;;8.30;99.90;;;;;;5014345;28;20186;-73
2023/02/04 03:41:24;;;;;;;4.93;2.93;;;8.40;99.90;;;;;;5014105;28;20209;-72
2023/02/04 03:43:49;;;;;;;4.60;2.50;;;8.30;99.90;;;;;;5014331;28;20212;-72
2023/02/04 03:46:15;;;;;;;5.60;2.50;;;8.30;99.90;;;;;;5019704;28;20197;-72
2023/02/04 03:48:40;;;;;;;7.17;3.30;;;8.10;99.90;;;;;;5034243;28;20167;-72
2023/02/04 03:51:06;;;;;;;7.50;3.30;;;8.10;99.90;;;;;;5034157;28;20178;-72
2023/02/04 03:53:32;;;;;;;5.20;2.27;;;8.10;99.90;;;;;;5033710;28;20178;-72
2023/02/04 03:55:57;;;;;;;5.87;2.73;;;8.20;99.90;;;;;;5033934;28;20678;-72
2023/02/04 03:58:23;;;;;;;3.70;2.90;;;8.10;99.90;;;;;;5033552;28;20256;-72
2023/02/04 04:00:49;;;;;;;6.27;2.80;;;8.10;99.90;;;;;;5033476;28;20177;-72
2023/02/04 04:03:14;;;;;;;5.17;2.87;;;8.20;99.90;;;;;;5033282;28;20208;-72
2023/02/04 04:05:40;;;;;;;5.93;3.13;;;8.20;99.90;;;;;;5033352;28;20223;-72
2023/02/04 04:08:05;;;;;;;6.60;3.50;;;8.20;99.90;;;;;;5034265;28;20569;-72
2023/02/04 04:10:31;;;;;;;5.87;3.30;;;8.20;99.90;;;;;;5033406;28;20219;-72
2023/02/04 04:12:57;;;;;;;4.97;2.90;;;8.20;99.90;;;;;;5033271;28;20191;-72
2023/02/04 04:15:22;;;;;;;8.43;3.77;;;8.20;99.90;;;;;;5033273;28;20190;-72
2023/02/04 04:17:48;;;;;;;5.73;3.30;;;8.40;99.90;;;;;;5031853;28;20595;-72
2023/02/04 04:20:13;;;;;;;10.43;3.60;;;8.30;99.90;;;;;;5033510;28;20186;-72
2023/02/04 04:22:39;;;;;;;7.03;4.00;;;8.10;99.90;;;;;;5033451;28;20235;-72
2023/02/04 04:25:05;;;;;;;6.27;2.90;;;8.10;99.90;;;;;;5033266;28;20239;-72
2023/02/04 04:27:31;;;;;;;3.90;2.67;;;8.30;99.90;;;;;;5033042;28;20163;-72
2023/02/04 04:29:57;;;;;;;8.77;3.63;;;8.30;99.90;;;;;;5031822;28;20852;-72
2023/02/04 04:32:22;;;;;;;6.20;3.80;;;8.20;99.90;;;;;;5032839;28;20632;-72
2023/02/04 04:34:48;;;;;;;7.10;2.67;;;8.30;99.90;;;;;;5032947;28;20217;-72
2023/02/04 04:37:14;;;;;;;7.33;3.17;;;8.20;99.90;;;;;;5032921;28;20176;-72
2023/02/04 04:39:39;;;;;;;5.70;2.80;;;8.30;99.90;;;;;;5031691;28;20549;-72
2023/02/04 04:42:05;;;;;;;3.63;3.07;;;8.10;99.90;;;;;;5018813;28;20705;-72
2023/02/04 04:44:30;;;;;;;7.00;3.77;;;8.20;99.90;;;;;;5013105;28;20194;-72
2023/02/04 04:46:56;;;;;;;3.53;3.00;;;8.20;99.90;;;;;;5023910;28;20239;-72
2023/02/04 04:49:22;;;;;;;5.30;3.00;;;8.30;99.90;;;;;;5032871;28;20175;-72
2023/02/04 04:51:48;;;;;;;7.00;3.10;;;8.30;99.90;;;;;;5033033;28;20176;-72
2023/02/04 04:54:13;;;;;;;7.40;3.00;;;8.30;99.90;;;;;;5055283;22;20488;-71
2023/02/04 04:56:39;;;;;;;6.67;3.07;;;8.40;99.90;;;;;;5031460;28;20178;-72
2023/02/04 04:59:05;;;;;;;5.63;3.40;;;8.40;99.90;;;;;;5048271;28;20170;-71
2023/02/04 05:01:30;;;;;;;5.47;2.87;;;8.40;99.90;;;;;;5032655;28;20180;-72
2023/02/04 05:03:56;;;;;;;4.53;3.17;;;8.40;99.90;;;;;;5031464;28;20629;-72
2023/02/04 05:06:24;;;;;;;4.10;3.40;;;8.30;99.90;;;;;;5031701;28;20621;-72
2023/02/04 05:08:50;;;;;;;3.97;3.53;;;8.40;99.90;;;;;;5032986;28;20161;-72
2023/02/04 05:11:17;;;;;;;5.47;3.10;;;8.40;99.90;;;;;;5032527;28;20400;-72
2023/02/04 05:13:42;;;;;;;3.50;3.00;;;8.40;99.90;;;;;;5033188;28;20401;-71
2023/02/04 05:16:10;;;;;;;5.23;3.30;;;8.30;99.90;;;;;;5031453;28;20460;-71
2023/02/04 05:18:40;;;;;;;5.63;3.63;;;8.20;99.90;;;;;;5025501;28;20704;-72
2023/02/04 05:21:06;;;;;;;5.27;4.10;;;8.10;99.90;;;;;;5012915;28;20498;-72
2023/02/04 05:23:32;;;;;;;3.90;2.70;;;8.10;99.90;;;;;;5012944;28;20438;-72
2023/02/04 05:25:57;;;;;;;5.43;3.83;;;8.10;99.90;;;;;;5012682;28;20473;-72
2023/02/04 05:28:23;;;;;;;6.47;4.30;;;8.20;99.90;;;;;;5012702;28;20600;-72
2023/02/04 05:30:48;;;;;;;5.37;4.17;;;8.10;99.90;;;;;;5012706;28;20171;-72
2023/02/04 05:33:14;;;;;;;8.33;4.80;;;8.00;99.90;;;;;;5012389;28;20244;-71
2023/02/04 05:35:39;;;;;;;9.90;4.47;;;8.00;99.90;;;;;;5012798;28;20227;-71
2023/02/04 05:38:05;;;;;;;5.17;3.50;;;8.10;99.90;;;;;;5012711;28;20305;-71
2023/02/04 05:40:31;;;;;;;6.70;4.30;;;8.10;99.90;;;;;;5012932;28;20210;-72
2023/02/04 05:42:56;;;;;;;4.63;4.23;;;8.10;99.90;;;;;;5011618;28;20262;-71
2023/02/04 05:45:22;;;;;;;8.40;4.17;;;8.10;99.90;;;;;;5016178;28;20275;-72
2023/02/04 05:47:47;;;;;;;12.03;4.97;;;8.10;99.90;;;;;;5031934;28;20177;-72
2023/02/04 05:50:13;;;;;;;10.93;5.47;;;8.00;99.90;;;;;;5036232;28;20164;-71
2023/02/04 05:52:39;;;;;;;5.97;4.43;;;8.00;99.90;;;;;;5035792;28;20168;-71
2023/02/04 05:55:06;;;;;;;6.93;4.70;;;8.00;99.90;;;;;;5035693;28;20319;-71
2023/02/04 05:57:31;;;;;;;10.90;6.40;;;7.90;99.90;;;;;;5035839;28;20175;-71
2023/02/04 05:59:57;;;;;;;8.67;4.57;;;7.90;99.90;;;;;;5034155;28;20508;-71
2023/02/04 06:02:23;;;;;;;12.93;10.50;;;7.90;99.90;;;;;;5035600;28;20179;-72
2023/02/04 06:04:48;;;;;;;23.43;15.30;;;7.90;99.90;;;;;;5035974;28;20211;-71
2023/02/04 06:07:14;;;;;;;51.33;35.53;;;7.90;99.90;;;;;;5034629;28;20189;-72
2023/02/04 06:09:39;;;;;;;30.97;26.27;;;7.90;99.90;;;;;;5036059;28;20178;-71
2023/02/04 06:12:05;;;;;;;57.23;37.87;;;8.00;99.90;;;;;;5035709;28;20571;-72
2023/02/04 06:14:31;;;;;;;65.27;40.70;;;8.00;99.90;;;;;;5034524;28;20196;-73
2023/02/04 06:16:56;;;;;;;40.03;25.03;;;8.00;99.90;;;;;;5034592;28;20661;-72
2023/02/04 06:19:22;;;;;;;38.73;22.20;;;8.00;99.90;;;;;;5035837;28;20173;-72
2023/02/04 06:21:48;;;;;;;43.87;25.40;;;7.90;99.90;;;;;;5035835;28;20182;-72
2023/02/04 06:24:13;;;;;;;59.07;32.60;;;7.80;99.90;;;;;;5035559;28;20232;-72
2023/02/04 06:26:39;;;;;;;27.07;13.77;;;7.80;99.90;;;;;;5035513;28;20198;-71
2023/02/04 06:29:04;;;;;;;93.43;57.83;;;7.70;99.90;;;;;;5035166;28;20163;-72
2023/02/04 06:31:30;;;;;;;224.67;112.27;;;7.70;99.90;;;;;;5034875;28;20584;-72
2023/02/04 06:33:55;;;;;;;17.17;9.43;;;7.90;99.90;;;;;;5035293;28;20196;-72
2023/02/04 06:36:21;;;;;;;67.43;39.10;;;7.90;99.90;;;;;;5035046;28;20227;-72
2023/02/04 06:38:46;;;;;;;62.23;34.33;;;8.00;99.90;;;;;;5035399;28;20175;-72
2023/02/04 06:41:12;;;;;;;16.67;10.60;;;8.10;99.90;;;;;;5036055;28;20183;-72
2023/02/04 06:43:37;;;;;;;19.37;12.53;;;8.00;99.90;;;;;;5034118;28;20640;-72
2023/02/04 06:46:03;;;;;;;13.80;8.17;;;8.00;99.90;;;;;;5026678;28;20668;-72
2023/02/04 06:48:29;;;;;;;12.07;6.83;;;8.10;99.90;;;;;;5033481;28;20167;-72
2023/02/04 06:50:54;;;;;;;10.67;6.33;;;8.20;99.90;;;;;;5035394;28;20622;-73
2023/02/04 06:53:20;;;;;;;10.03;5.80;;;8.10;99.90;;;;;;5034846;28;20212;-72
2023/02/04 06:55:45;;;;;;;9.77;6.20;;;7.90;99.90;;;;;;5033666;28;20202;-71
2023/02/04 06:58:11;;;;;;;9.70;6.47;;;7.90;99.90;;;;;;5035290;28;20250;-72
2023/02/04 07:00:37;;;;;;;8.60;6.10;;;7.90;99.90;;;;;;5035215;28;20256;-72
2023/02/04 07:03:03;;;;;;;17.23;7.07;;;7.90;99.90;;;;;;5034248;28;20252;-71
2023/02/04 07:05:28;;;;;;;12.37;6.57;;;8.00;99.90;;;;;;5034357;28;20195;-72
2023/02/04 07:07:54;;;;;;;10.93;7.30;;;8.00;99.90;;;;;;5034334;28;20213;-71
2023/02/04 07:10:22;;;;;;;13.40;7.47;;;8.00;99.90;;;;;;5034582;28;20206;-72
2023/02/04 07:12:48;;;;;;;9.83;6.20;;;8.00;99.90;;;;;;5034169;28;20163;-71
2023/02/04 07:15:14;;;;;;;14.30;6.03;;;8.00;99.90;;;;;;5034172;28;20428;-72
2023/02/04 07:17:39;;;;;;;13.43;5.37;;;8.00;99.90;;;;;;5032558;28;20168;-72
2023/02/04 07:20:05;;;;;;;15.63;6.23;;;7.90;99.90;;;;;;5025979;28;20460;-71
2023/02/04 07:22:31;;;;;;;10.73;5.27;;;7.70;99.90;;;;;;5014655;28;20226;-71
2023/02/04 07:24:56;;;;;;;13.93;6.57;;;7.60;99.90;;;;;;5013915;28;20421;-70
2023/02/04 07:27:22;;;;;;;12.20;6.67;;;7.80;99.90;;;;;;5013223;28;20195;-72
2023/02/04 07:29:47;;;;;;;12.43;5.50;;;8.00;99.90;;;;;;5014199;28;20171;-71
2023/02/04 07:32:13;;;;;;;11.30;6.60;;;7.80;99.90;;;;;;5012694;28;20165;-72
2023/02/04 07:34:38;;;;;;;13.03;5.50;;;7.80;99.90;;;;;;5014046;28;20217;-71
2023/02/04 07:37:04;;;;;;;12.00;6.30;;;7.90;99.90;;;;;;5012958;28;20684;-72
2023/02/04 07:39:29;;;;;;;11.80;5.50;;;7.90;99.90;;;;;;5014186;28;20167;-72
2023/02/04 07:41:55;;;;;;;12.33;6.00;;;7.90;99.90;;;;;;5013935;28;20172;-71
2023/02/04 07:44:20;;;;;;;11.07;5.67;;;7.90;99.90;;;;;;5014158;28;20202;-72
2023/02/04 07:46:46;;;;;;;8.50;5.50;;;8.20;99.90;;;;;;5020514;28;20201;-72
2023/02/04 07:49:11;;;;;;;8.73;5.70;;;8.10;99.90;;;;;;5034076;28;20258;-72
2023/02/04 07:51:37;;;;;;;10.60;5.40;;;8.10;99.90;;;;;;5032155;28;20206;-71
2023/02/04 07:54:02;;;;;;;9.90;5.40;;;8.00;99.90;;;;;;5033653;28;20211;-71
2023/02/04 07:56:28;;;;;;;12.47;5.67;;;7.80;99.90;;;;;;5033971;28;20165;-72
2023/02/04 07:58:54;;;;;;;14.47;5.83;;;8.00;99.90;;;;;;5014463;28;20176;-72
2023/02/04 08:01:19;;;;;;;10.07;5.73;;;8.00;99.90;;;;;;5015200;28;20172;-72
2023/02/04 08:03:45;;;;;;;9.80;5.13;;;8.00;99.90;;;;;;5013814;28;20172;-72
2023/02/04 08:06:10;;;;;;;8.93;4.30;;;7.90;99.90;;;;;;5013495;28;20819;-72
2023/02/04 08:08:36;;;;;;;16.30;6.23;;;7.60;99.90;;;;;;5014009;28;20163;-71
2023/02/04 08:11:01;;;;;;;13.63;4.80;;;7.70;99.90;;;;;;5013800;28;20178;-71
2023/02/04 08:13:27;;;;;;;13.77;4.50;;;7.70;99.90;;;;;;5013719;28;20168;-72
2023/02/04 08:15:53;;;;;;;11.70;5.53;;;7.90;99.90;;;;;;5013404;28;20184;-73
2023/02/04 08:18:18;;;;;;;14.23;5.70;;;7.90;99.90;;;;;;5031271;28;20701;-72
2023/02/04 08:20:44;;;;;;;21.67;10.67;;;8.10;99.90;;;;;;5033164;28;20205;-73
2023/02/04 08:23:09;;;;;;;12.00;6.00;;;8.20;99.90;;;;;;5033203;28;20176;-71
2023/02/04 08:25:35;;;;;;;10.50;4.40;;;8.20;99.90;;;;;;5033101;28;20633;-72
2023/02/04 08:28:00;;;;;;;15.63;5.33;;;8.10;99.90;;;;;;5033171;28;20641;-71
2023/02/04 08:30:26;;;;;;;13.50;6.17;;;8.40;99.90;;;;;;5033379;28;20306;-72
2023/02/04 08:32:51;;;;;;;19.83;7.60;;;8.60;99.90;;;;;;5032637;28;20202;-72
2023/02/04 08:35:17;;;;;;;15.47;6.50;;;8.50;99.90;;;;;;5033455;28;20188;-73
2023/02/04 08:37:43;;;;;;;17.03;7.53;;;8.60;99.90;;;;;;5032935;28;20656;-72
2023/02/04 08:40:09;;;;;;;16.37;9.10;;;8.70;99.90;;;;;;5032341;28;20194;-72
2023/02/04 08:42:35;;;;;;;20.27;10.43;;;8.70;99.90;;;;;;5033433;28;20704;-72
2023/02/04 08:45:00;;;;;;;11.30;7.17;;;8.80;99.90;;;;;;5032885;28;20518;-72
2023/02/04 08:47:26;;;;;;;15.77;7.40;;;8.80;99.90;;;;;;5031216;28;20293;-71
2023/02/04 08:49:51;;;;;;;10.53;5.57;;;8.90;99.90;;;;;;5033053;28;20192;-71
2023/02/04 08:52:18;;;;;;;12.57;5.30;;;8.80;99.90;;;;;;5032750;28;20662;-72
2023/02/04 08:54:43;;;;;;;12.37;5.20;;;8.70;99.90;;;;;;5031489;28;20289;-72
2023/02/04 08:57:09;;;;;;;11.60;6.03;;;8.60;99.90;;;;;;5032532;28;20499;-72
2023/02/04 08:59:34;;;;;;;11.93;5.50;;;8.20;99.90;;;;;;5032912;28;20596;-71
2023/02/04 09:02:01;;;;;;;14.13;6.10;;;8.20;99.90;;;;;;5031375;28;20195;-72
2023/02/04 09:04:27;;;;;;;17.37;6.60;;;8.40;99.90;;;;;;5032835;28;20188;-72
2023/02/04 09:06:53;;;;;;;9.47;5.37;;;8.30;99.90;;;;;;5032944;28;20445;-72
2023/02/04 09:09:19;;;;;;;11.90;5.33;;;8.10;99.90;;;;;;5032830;28;20409;-71
2023/02/04 09:11:45;;;;;;;16.07;5.37;;;8.20;99.90;;;;;;5032836;28;20420;-72
2023/02/04 09:14:10;;;;;;;10.43;6.17;;;8.20;99.90;;;;;;5031262;28;20640;-71
2023/02/04 09:16:36;;;;;;;10.13;6.00;;;8.20;99.90;;;;;;5031845;28;20178;-72
2023/02/04 09:19:02;;;;;;;9.20;6.07;;;8.10;99.90;;;;;;5034791;28;20184;-71
2023/02/04 09:21:27;;;;;;;11.77;5.80;;;8.10;99.90;;;;;;5037556;28;20171;-71
2023/02/04 09:23:53;;;;;;;11.13;6.80;;;8.30;99.90;;;;;;5036710;28;20178;-72
2023/02/04 09:26:19;;;;;;;14.43;5.60;;;8.40;99.90;;;;;;5035298;28;20194;-72
2023/02/04 09:28:46;;;;;;;10.13;6.37;;;8.30;99.90;;;;;;5038330;28;20532;-71
2023/02/04 09:31:11;;;;;;;10.10;6.07;;;8.10;99.90;;;;;;5036117;28;20178;-72
2023/02/04 09:33:37;;;;;;;11.83;6.20;;;8.00;99.90;;;;;;5036382;28;20394;-71
2023/02/04 09:36:03;;;;;;;9.67;6.27;;;8.20;99.90;;;;;;5036821;28;20187;-71
2023/02/04 09:38:29;;;;;;;12.67;4.47;;;8.30;99.90;;;;;;5037510;28;20189;-72
2023/02/04 09:41:01;;;;;;;12.33;5.30;;;8.50;99.90;;;;;;5036955;28;20425;-72
2023/02/04 09:43:30;;;;;;;9.30;4.97;;;8.60;99.90;;;;;;5037322;28;20224;-71
2023/02/04 09:45:57;;;;;;;10.03;4.43;;;8.80;99.90;;;;;;5037239;28;20447;-71
2023/02/04 09:48:23;;;;;;;12.63;5.10;;;9.10;99.90;;;;;;5035550;28;20414;-72
2023/02/04 09:50:50;;;;;;;8.47;4.23;;;9.40;99.90;;;;;;5036644;28;20748;-71
2023/02/04 09:53:20;;;;;;;10.47;4.00;;;9.50;99.90;;;;;;5035794;28;20407;-72
2023/02/04 09:55:47;;;;;;;10.80;4.90;;;9.80;99.90;;;;;;5035754;28;20847;-71
2023/02/04 09:58:18;;;;;;;9.37;4.57;;;9.80;99.90;;;;;;5023210;28;20920;-71
2023/02/04 10:00:46;;;;;;;6.20;3.27;;;9.70;99.90;;;;;;5014521;28;20411;-70
2023/02/04 10:03:17;;;;;;;6.43;3.60;;;10.00;99.90;;;;;;5017824;28;20415;-72
2023/02/04 10:05:45;;;;;;;10.27;3.60;;;10.00;99.90;;;;;;5014494;28;20459;-72
2023/02/04 10:08:16;;;;;;;8.63;3.10;;;9.30;99.90;;;;;;5015683;28;20962;-71
2023/02/04 10:10:42;;;;;;;9.10;3.80;;;8.80;99.90;;;;;;5015870;28;20742;-71
2023/02/04 10:13:17;;;;;;;11.03;4.10;;;8.70;99.90;;;;;;5014455;28;20416;-73
2023/02/04 10:15:44;;;;;;;11.13;4.00;;;9.00;99.90;;;;;;5015972;28;20420;-72
2023/02/04 10:18:17;;;;;;;9.97;3.43;;;9.20;99.90;;;;;;5030963;28;20937;-72
2023/02/04 10:20:42;;;;;;;7.30;3.20;;;9.30;99.90;;;;;;5035783;28;20956;-72
2023/02/04 10:23:10;;;;;;;8.23;3.60;;;9.40;99.90;;;;;;5035284;28;20490;-72
2023/02/04 10:25:36;;;;;;;9.10;3.73;;;9.40;99.90;;;;;;5035160;28;20187;-71
2023/02/04 10:28:01;;;;;;;14.73;4.33;;;9.30;99.90;;;;;;5035193;28;20756;-71
2023/02/04 10:30:40;;;;;;;10.53;3.60;;;9.10;99.90;;;;;;5035210;28;20437;-72
2023/02/04 10:33:23;;;;;;;9.80;4.10;;;9.00;99.90;;;;;;5033720;28;20249;-72
2023/02/04 10:35:51;;;;;;;9.57;3.60;;;8.90;99.90;;;;;;5033744;28;20441;-72
2023/02/04 10:38:17;;;;;;;9.90;3.93;;;8.90;99.90;;;;;;5034877;28;20851;-73
2023/02/04 10:40:43;;;;;;;10.13;3.60;;;9.30;99.90;;;;;;5035050;28;20505;-72
2023/02/04 10:43:17;;;;;;;8.97;3.20;;;9.20;99.90;;;;;;5035075;28;20486;-72
2023/02/04 10:45:56;;;;;;;12.13;4.33;;;9.30;99.90;;;;;;5035053;28;20224;-71
2023/02/04 10:48:22;;;;;;;16.03;4.07;;;9.60;99.90;;;;;;5034495;28;20468;-72
2023/02/04 10:50:48;;;;;;;10.50;4.40;;;9.70;99.90;;;;;;5033685;28;20409;-72
2023/02/04 10:56:14;;;;;;;9.80;4.13;;;9.60;99.90;;;;;;5034582;22;20522;-73
2023/02/04 10:58:40;;;;;;;7.80;3.60;;;9.50;99.90;;;;;;5015262;28;20742;-73
2023/02/04 11:01:13;;;;;;;8.80;3.00;;;9.30;99.90;;;;;;5014911;28;20422;-72
2023/02/04 11:03:40;;;;;;;13.77;4.23;;;9.20;99.90;;;;;;5015633;28;20165;-72
2023/02/04 11:06:17;;;;;;;14.70;4.30;;;9.20;99.90;;;;;;5015088;28;20946;-72
2023/02/04 11:08:42;;;;;;;17.27;3.13;;;9.30;99.90;;;;;;5015021;28;20391;-72
2023/02/04 11:11:15;;;;;;;8.63;3.60;;;9.40;99.90;;;;;;5014723;28;20404;-72
2023/02/04 11:14:03;;;;;;;7.60;3.83;;;9.70;99.90;;;;;;5014970;28;20179;-73
2023/02/04 11:16:34;;;;;;;8.37;3.70;;;10.30;99.90;;;;;;5014490;28;20453;-73
2023/02/04 11:19:06;;;;;;;9.80;3.20;;;11.70;99.90;;;;;;5013566;28;20426;-72
2023/02/04 11:21:31;;;;;;;10.70;4.10;;;11.50;99.90;;;;;;5014558;28;20446;-72
2023/02/04 11:24:10;;;;;;;7.23;3.50;;;11.30;99.90;;;;;;5014421;28;20419;-73
2023/02/04 11:26:40;;;;;;;7.23;3.33;;;11.10;99.90;;;;;;5014404;28;20205;-72
2023/02/04 11:29:23;;;;;;;9.80;4.00;;;10.50;99.90;;;;;;5014277;28;20417;-71
2023/02/04 11:31:48;;;;;;;12.00;3.87;;;10.10;99.90;;;;;;5014616;28;20382;-71
2023/02/04 11:34:14;;;;;;;13.33;5.87;;;10.00;99.90;;;;;;5014134;28;20985;-71
2023/02/04 11:36:53;;;;;;;10.33;4.23;;;9.80;99.90;;;;;;5014517;28;20174;-71
2023/02/04 11:39:19;;;;;;;8.47;4.07;;;9.60;99.90;;;;;;5014394;28;20170;-72
2023/02/04 11:41:45;;;;;;;16.67;3.43;;;9.50;99.90;;;;;;5013604;28;20930;-72
2023/02/04 11:44:12;;;;;;;9.57;3.90;;;9.30;99.90;;;;;;5014127;28;20243;-72
2023/02/04 11:46:38;;;;;;;9.97;3.40;;;9.00;99.90;;;;;;5013952;28;20442;-72
2023/02/04 11:49:03;;;;;;;9.00;3.77;;;9.00;99.90;;;;;;5012297;28;20501;-72
2023/02/04 11:51:32;;;;;;;6.03;3.00;;;9.10;99.90;;;;;;5014051;28;20168;-72
2023/02/04 11:53:57;;;;;;;14.60;5.20;;;9.00;99.90;;;;;;5015007;28;20218;-72
2023/02/04 11:56:27;;;;;;;13.70;4.13;;;9.10;99.90;;;;;;5013705;28;20442;-72
2023/02/04 11:58:56;;;;;;;10.37;3.70;;;9.40;99.90;;;;;;5016020;28;20663;-72
2023/02/04 12:01:24;;;;;;;15.37;4.00;;;9.60;99.90;;;;;;5012399;28;20435;-72
2023/02/04 12:03:56;;;;;;;14.00;3.90;;;9.70;99.90;;;;;;5014153;28;20399;-72
2023/02/04 12:06:31;;;;;;;11.60;3.70;;;9.60;99.90;;;;;;5013077;28;20509;-72
2023/02/04 12:09:16;;;;;;;10.90;3.87;;;9.30;99.90;;;;;;5013546;28;20426;-72
2023/02/04 12:11:52;;;;;;;10.40;4.13;;;9.50;99.90;;;;;;5013555;28;20407;-72
2023/02/04 12:14:18;;;;;;;9.03;3.10;;;9.70;99.90;;;;;;5013652;28;20969;-72
2023/02/04 12:16:46;;;;;;;14.90;4.33;;;9.50;99.90;;;;;;5011779;28;20418;-73
2023/02/04 12:19:13;;;;;;;11.77;3.33;;;9.50;99.90;;;;;;5013203;28;20932;-72
2023/02/04 12:21:39;;;;;;;11.90;4.10;;;9.70;99.90;;;;;;5013847;28;20779;-72
2023/02/04 12:24:05;;;;;;;13.00;4.07;;;9.70;99.90;;;;;;5013426;28;20417;-71
2023/02/04 12:26:30;;;;;;;7.53;3.20;;;9.50;99.90;;;;;;5012253;28;20509;-72
2023/02/04 12:28:56;;;;;;;7.07;3.07;;;9.90;99.90;;;;;;5013607;28;20246;-72
2023/02/04 12:31:22;;;;;;;10.23;3.57;;;10.30;99.90;;;;;;5012272;28;20172;-72
2023/02/04 12:33:47;;;;;;;9.90;4.00;;;10.90;99.90;;;;;;5013269;28;20171;-72
2023/02/04 12:36:13;;;;;;;12.20;4.27;;;10.80;99.90;;;;;;5013191;28;20682;-72
2023/02/04 12:38:39;;;;;;;6.00;3.57;;;10.60;99.90;;;;;;5013577;28;20662;-72
2023/02/04 12:41:05;;;;;;;15.43;3.87;;;11.00;99.90;;;;;;5013881;28;20295;-72
2023/02/04 12:43:30;;;;;;;9.60;3.13;;;10.50;99.90;;;;;;5013296;28;20418;-72
2023/02/04 12:45:56;;;;;;;6.37;2.90;;;10.20;99.90;;;;;;5013153;28;20235;-71
2023/02/04 12:48:21;;;;;;;8.07;3.10;;;10.40;99.90;;;;;;5012943;28;20191;-72
2023/02/04 12:50:47;;;;;;;6.73;3.30;;;10.70;99.90;;;;;;5013149;28;20161;-71
2023/02/04 12:53:12;;;;;;;12.10;3.80;;;10.70;99.90;;;;;;5013836;28;20172;-73